createdAt,value
2019-04-27T00:00:23.681Z,36.17
2019-04-27T00:03:02.091Z,33.63
2019-04-27T00:05:35.021Z,33.92
2019-04-27T00:08:06.473Z,34.75
2019-04-27T00:10:44.174Z,29.48
2019-04-27T00:13:15.206Z,35.60
2019-04-27T00:15:49.906Z,31.93
2019-04-27T00:18:23.469Z,22.87
2019-04-27T00:21:03.571Z,33.00
2019-04-27T00:23:31.332Z,34.40
2019-04-27T00:26:00.555Z,29.83
2019-04-27T00:28:29.754Z,33.02
2019-04-27T00:30:58.958Z,35.30
2019-04-27T00:33:28.128Z,34.53
2019-04-27T00:36:03.974Z,31.97
2019-04-27T00:38:38.555Z,27.22
2019-04-27T00:41:10.149Z,34.53
2019-04-27T00:43:39.334Z,30.57
2019-04-27T00:46:08.609Z,30.92
2019-04-27T00:48:37.808Z,23.20
2019-04-27T00:51:07.057Z,25.48
2019-04-27T00:53:36.330Z,22.77
2019-04-27T00:56:23.621Z,21.57
2019-04-27T00:58:56.493Z,27.37
2019-04-27T01:01:29.949Z,27.10
2019-04-27T01:04:03.730Z,27.35
2019-04-27T01:06:33.602Z,33.83
2019-04-27T01:09:03.365Z,30.60
2019-04-27T01:11:31.013Z,25.70
2019-04-27T01:14:00.203Z,29.33
2019-04-27T01:16:29.465Z,33.93
2019-04-27T01:18:59.006Z,30.57
2019-04-27T01:21:29.527Z,33.00
2019-04-27T01:23:58.917Z,31.60
2019-04-27T01:26:51.489Z,32.83
2019-04-27T01:29:22.035Z,31.33
2019-04-27T01:31:51.216Z,34.83
2019-04-27T01:34:20.416Z,29.77
2019-04-27T01:36:50.849Z,28.23
2019-04-27T01:39:20.042Z,27.37
2019-04-27T01:41:49.267Z,25.50
2019-04-27T01:44:19.400Z,28.83
2019-04-27T01:46:48.680Z,26.27
2019-04-27T01:49:16.957Z,26.37
2019-04-27T01:51:46.194Z,23.30
2019-04-27T01:54:15.387Z,25.90
2019-04-27T01:56:44.576Z,28.37
2019-04-27T01:59:13.841Z,28.32
2019-04-27T02:01:55.238Z,29.23
2019-04-27T02:04:33.793Z,36.70
2019-04-27T02:07:05.048Z,40.75
2019-04-27T02:09:34.274Z,38.02
2019-04-27T02:12:03.501Z,38.93
2019-04-27T02:14:32.680Z,32.77
2019-04-27T02:17:01.852Z,43.07
2019-04-27T02:19:31.021Z,30.80
2019-04-27T02:22:00.262Z,32.20
2019-04-27T02:24:29.465Z,33.67
2019-04-27T02:26:58.796Z,33.97
2019-04-27T02:29:34.375Z,33.13
2019-04-27T02:32:10.284Z,37.45
2019-04-27T02:34:41.513Z,29.60
2019-04-27T02:37:10.736Z,26.13
2019-04-27T02:39:40.107Z,33.10
2019-04-27T02:42:10.123Z,29.43
2019-04-27T02:44:40.470Z,37.07
2019-04-27T02:47:10.489Z,29.20
2019-04-27T02:49:40.400Z,25.73
2019-04-27T02:52:11.382Z,29.53
2019-04-27T02:54:40.574Z,27.27
2019-04-27T02:57:10.300Z,31.13
2019-04-27T02:59:39.940Z,24.73
2019-04-27T03:02:26.552Z,30.93
2019-04-27T03:04:55.753Z,37.10
2019-04-27T03:07:24.922Z,31.73
2019-04-27T03:09:54.193Z,33.87
2019-04-27T03:12:24.829Z,29.63
2019-04-27T03:15:00.368Z,28.37
2019-04-27T03:19:39.847Z,32.73
2019-04-27T03:22:13.585Z,39.90
2019-04-27T03:24:49.942Z,33.80
2019-04-27T03:27:20.347Z,35.57
2019-04-27T03:29:49.951Z,30.20
2019-04-27T03:32:22.698Z,32.13
2019-04-27T03:34:52.105Z,31.70
2019-04-27T03:37:17.202Z,30.33
2019-04-27T03:39:46.378Z,32.57
2019-04-27T03:42:15.719Z,33.33
2019-04-27T03:44:45.061Z,33.20
2019-04-27T03:47:14.251Z,31.17
2019-04-27T03:49:43.450Z,27.37
2019-04-27T03:53:20.573Z,29.70
2019-04-27T03:55:50.709Z,27.20
2019-04-27T03:58:39.940Z,30.23
2019-04-27T04:01:10.511Z,30.63
2019-04-27T04:03:39.316Z,27.87
2019-04-27T04:06:07.542Z,22.97
2019-04-27T04:08:36.762Z,25.68
2019-04-27T04:11:10.384Z,26.93
2019-04-27T04:13:46.145Z,33.17
2019-04-27T04:16:20.334Z,31.13
2019-04-27T04:18:54.566Z,23.77
2019-04-27T04:21:23.859Z,28.45
2019-04-27T04:23:53.152Z,29.32
2019-04-27T04:26:22.348Z,34.00
2019-04-27T04:28:51.582Z,30.02
2019-04-27T04:31:21.148Z,33.25
2019-04-27T04:33:50.247Z,35.92
2019-04-27T04:36:20.148Z,33.53
2019-04-27T04:38:50.429Z,33.70
2019-04-27T04:41:25.476Z,34.40
2019-04-27T04:44:00.219Z,32.35
2019-04-27T04:47:06.078Z,35.63
2019-04-27T04:49:35.315Z,30.77
2019-04-27T04:52:04.521Z,32.63
2019-04-27T04:54:33.758Z,41.73
2019-04-27T04:57:03.010Z,33.73
2019-04-27T04:59:32.301Z,34.78
2019-04-27T05:02:02.389Z,39.00
2019-04-27T05:04:30.733Z,30.77
2019-04-27T05:06:59.925Z,32.93
2019-04-27T05:09:30.454Z,31.15
2019-04-27T05:11:59.658Z,31.05
2019-04-27T05:14:29.027Z,32.45
2019-04-27T05:17:03.586Z,39.63
2019-04-27T05:19:34.293Z,34.75
2019-04-27T05:22:03.957Z,31.48
2019-04-27T05:24:33.231Z,32.60
2019-04-27T05:27:03.854Z,51.13
2019-04-27T05:29:33.132Z,26.10
2019-04-27T05:32:02.387Z,25.00
2019-04-27T05:34:31.924Z,25.00
2019-04-27T05:37:01.240Z,31.65
2019-04-27T05:39:31.832Z,24.43
2019-04-27T05:42:01.114Z,22.52
2019-04-27T05:44:45.618Z,20.45
2019-04-27T05:47:13.778Z,24.30
2019-04-27T05:49:46.400Z,29.00
2019-04-27T05:52:30.946Z,20.15
2019-04-27T05:55:01.486Z,19.12
2019-04-27T05:57:31.320Z,18.62
2019-04-27T06:00:02.205Z,20.32
2019-04-27T06:02:31.158Z,23.80
2019-04-27T06:05:00.435Z,20.23
2019-04-27T06:07:32.209Z,21.62
2019-04-27T06:10:01.496Z,20.48
2019-04-27T06:12:33.258Z,23.73
2019-04-27T06:15:02.548Z,25.77
2019-04-27T06:17:31.924Z,24.43
2019-04-27T06:20:01.252Z,23.30
2019-04-27T06:22:30.531Z,24.40
2019-04-27T06:25:00.554Z,21.10
2019-04-27T06:27:31.079Z,21.60
2019-04-27T06:30:04.702Z,21.00
2019-04-27T06:32:30.781Z,18.32
2019-04-27T06:35:00.933Z,24.72
2019-04-27T06:37:31.454Z,18.98
2019-04-27T06:40:00.958Z,20.25
2019-04-27T06:42:30.277Z,18.20
2019-04-27T06:45:00.031Z,21.90
2019-04-27T06:47:32.653Z,25.00
2019-04-27T06:50:01.845Z,19.37
2019-04-27T06:52:33.504Z,23.70
2019-04-27T06:55:02.722Z,21.02
2019-04-27T06:57:31.921Z,21.68
2019-04-27T07:00:02.428Z,22.77
2019-04-27T07:02:33.963Z,23.50
2019-04-27T07:05:04.401Z,19.05
2019-04-27T07:07:33.684Z,22.58
2019-04-27T07:10:02.928Z,21.45
2019-04-27T07:12:32.254Z,25.50
2019-04-27T07:15:01.450Z,18.48
2019-04-27T07:17:30.724Z,18.82
2019-04-27T07:19:59.958Z,24.02
2019-04-27T07:22:29.860Z,29.23
2019-04-27T07:25:02.094Z,28.92
2019-04-27T07:27:39.425Z,22.48
2019-04-27T07:30:11.937Z,38.17
2019-04-27T07:32:38.940Z,28.98
2019-04-27T07:35:06.623Z,24.87
2019-04-27T07:37:35.869Z,62.73
2019-04-27T07:40:09.056Z,87.53
2019-04-27T07:42:36.844Z,24.57
2019-04-27T07:45:13.793Z,31.45
2019-04-27T07:47:44.665Z,19.37
2019-04-27T07:50:14.004Z,19.80
2019-04-27T07:52:43.237Z,30.15
2019-04-27T07:55:12.481Z,24.18
2019-04-27T07:57:42.936Z,23.87
2019-04-27T08:00:13.426Z,26.00
2019-04-27T08:02:42.673Z,23.67
2019-04-27T08:05:11.944Z,24.18
2019-04-27T08:07:41.208Z,18.82
2019-04-27T08:10:10.422Z,23.38
2019-04-27T08:12:39.640Z,26.65
2019-04-27T08:15:10.100Z,23.60
2019-04-27T08:17:42.856Z,27.37
2019-04-27T08:20:11.129Z,24.27
2019-04-27T08:22:40.476Z,30.72
2019-04-27T08:25:09.741Z,26.93
2019-04-27T08:27:43.520Z,28.27
2019-04-27T08:30:22.049Z,25.25
2019-04-27T08:32:51.623Z,30.72
2019-04-27T08:35:20.855Z,26.57
2019-04-27T08:37:50.768Z,28.87
2019-04-27T08:40:22.527Z,27.30
2019-04-27T08:42:51.935Z,26.87
2019-04-27T08:45:21.332Z,26.73
2019-04-27T08:47:51.883Z,25.17
2019-04-27T08:50:21.162Z,24.37
2019-04-27T08:52:50.503Z,23.15
2019-04-27T08:55:21.038Z,21.65
2019-04-27T08:57:51.792Z,21.77
2019-04-27T09:00:21.110Z,20.65
2019-04-27T09:02:51.769Z,21.42
2019-04-27T09:05:25.697Z,21.55
2019-04-27T09:08:03.248Z,26.52
2019-04-27T09:10:40.938Z,22.70
2019-04-27T09:14:20.843Z,21.23
2019-04-27T09:17:00.270Z,21.97
2019-04-27T09:19:32.602Z,22.52
2019-04-27T09:22:12.478Z,24.32
2019-04-27T09:24:31.912Z,22.60
2019-04-27T09:30:35.178Z,23.92
2019-04-27T09:33:04.866Z,22.62
2019-04-27T09:35:35.619Z,22.80
2019-04-27T09:38:03.657Z,26.50
2019-04-27T09:40:33.290Z,20.90
2019-04-27T09:43:02.546Z,24.27
2019-04-27T09:45:33.044Z,23.47
2019-04-27T09:48:02.417Z,21.05
2019-04-27T09:50:33.152Z,25.48
2019-04-27T09:53:02.448Z,26.02
2019-04-27T09:55:33.012Z,25.95
2019-04-27T09:58:02.248Z,27.98
2019-04-27T10:00:31.565Z,20.55
2019-04-27T10:03:00.876Z,26.73
2019-04-27T10:05:31.470Z,28.90
2019-04-27T10:08:00.674Z,26.65
2019-04-27T10:10:29.943Z,29.80
2019-04-27T10:12:59.240Z,25.25
2019-04-27T10:15:28.532Z,30.57
2019-04-27T10:17:58.279Z,25.43
2019-04-27T10:20:27.538Z,30.60
2019-04-27T10:22:57.960Z,34.00
2019-04-27T10:25:28.113Z,29.12
2019-04-27T10:27:58.243Z,36.05
2019-04-27T10:30:27.738Z,30.27
2019-04-27T10:32:56.949Z,30.75
2019-04-27T10:35:26.710Z,29.90
2019-04-27T10:37:58.504Z,26.82
2019-04-27T10:40:27.741Z,27.40
2019-04-27T10:42:57.031Z,24.10
2019-04-27T10:45:26.297Z,19.87
2019-04-27T10:47:56.290Z,26.60
2019-04-27T10:50:26.519Z,26.77
2019-04-27T10:52:58.952Z,31.27
2019-04-27T10:55:26.158Z,25.43
2019-04-27T10:57:54.076Z,20.80
2019-04-27T11:00:29.930Z,24.27
2019-04-27T11:03:00.295Z,24.72
2019-04-27T11:05:33.853Z,29.98
2019-04-27T11:08:03.166Z,22.95
2019-04-27T11:10:32.393Z,25.35
2019-04-27T11:13:01.613Z,23.07
2019-04-27T11:15:32.096Z,22.52
2019-04-27T11:18:01.301Z,21.80
2019-04-27T11:20:30.644Z,30.17
2019-04-27T11:23:07.044Z,25.57
2019-04-27T11:25:30.446Z,24.82
2019-04-27T11:27:59.756Z,31.52
2019-04-27T11:30:28.981Z,28.70
2019-04-27T11:32:59.461Z,28.80
2019-04-27T11:35:35.338Z,25.35
2019-04-27T11:38:05.596Z,28.90
2019-04-27T11:40:36.684Z,23.70
2019-04-27T11:43:05.935Z,26.40
2019-04-27T11:45:39.376Z,31.45
2019-04-27T11:48:08.597Z,29.18
2019-04-27T11:50:41.558Z,24.75
2019-04-27T11:53:20.744Z,28.00
2019-04-27T11:55:41.292Z,25.02
2019-04-27T11:58:10.493Z,24.60
2019-04-27T12:00:39.709Z,22.75
2019-04-27T12:03:08.930Z,26.80
2019-04-27T12:05:39.403Z,26.65
2019-04-27T12:08:08.644Z,25.48
2019-04-27T12:10:37.862Z,22.22
2019-04-27T12:13:07.683Z,27.10
2019-04-27T12:15:36.370Z,22.55
2019-04-27T12:18:08.852Z,17.42
2019-04-27T12:20:36.237Z,26.70
2019-04-27T12:23:06.708Z,21.77
2019-04-27T12:25:37.413Z,21.48
2019-04-27T12:28:09.494Z,28.05
2019-04-27T12:30:44.333Z,18.60
2019-04-27T12:33:13.622Z,17.80
2019-04-27T12:35:42.822Z,20.48
2019-04-27T12:38:12.993Z,25.40
2019-04-27T12:40:46.519Z,17.65
2019-04-27T12:43:14.028Z,19.73
2019-04-27T12:45:43.669Z,17.62
2019-04-27T12:48:12.529Z,18.05
2019-04-27T12:50:42.158Z,22.50
2019-04-27T12:53:14.746Z,15.58
2019-04-27T12:56:06.634Z,17.52
2019-04-27T12:58:39.318Z,17.80
2019-04-27T13:01:09.648Z,17.55
2019-04-27T13:03:38.873Z,18.50
2019-04-27T13:06:08.080Z,16.45
2019-04-27T13:08:37.314Z,17.80
2019-04-27T13:11:06.658Z,21.62
2019-04-27T13:13:36.787Z,18.23
2019-04-27T13:16:06.556Z,18.55
2019-04-27T13:18:36.016Z,20.75
2019-04-27T13:21:03.587Z,16.50
2019-04-27T13:23:34.089Z,15.30
2019-04-27T13:26:03.291Z,20.15
2019-04-27T13:28:32.502Z,16.42
2019-04-27T13:31:01.729Z,24.27
2019-04-27T13:33:32.264Z,21.42
2019-04-27T13:36:01.483Z,17.98
2019-04-27T13:38:30.789Z,17.10
2019-04-27T13:41:06.189Z,23.50
2019-04-27T13:43:36.144Z,19.73
2019-04-27T13:46:43.437Z,21.95
2019-04-27T13:49:49.465Z,21.02
2019-04-27T13:52:22.352Z,16.57
2019-04-27T13:54:52.812Z,19.75
2019-04-27T13:57:22.005Z,19.17
2019-04-27T13:59:51.683Z,18.95
2019-04-27T14:02:21.515Z,17.50
2019-04-27T14:04:52.189Z,18.90
2019-04-27T14:07:21.430Z,19.98
2019-04-27T14:09:50.659Z,24.07
2019-04-27T14:12:21.329Z,20.57
2019-04-27T14:14:49.816Z,18.48
2019-04-27T14:17:19.402Z,16.02
2019-04-27T14:19:48.440Z,18.85
2019-04-27T14:22:18.236Z,21.35
2019-04-27T14:24:48.576Z,26.23
2019-04-27T14:27:16.537Z,20.12
2019-04-27T14:29:45.749Z,18.35
2019-04-27T14:32:16.267Z,20.72
2019-04-27T14:34:50.087Z,19.75
2019-04-27T14:37:18.587Z,22.13
2019-04-27T14:39:46.666Z,18.37
2019-04-27T14:42:19.110Z,22.02
2019-04-27T14:44:48.971Z,17.80
2019-04-27T14:47:18.850Z,22.05
2019-04-27T14:49:49.065Z,20.45
2019-04-27T14:52:18.683Z,17.60
2019-04-27T14:54:48.825Z,23.52
2019-04-27T14:57:18.403Z,22.48
2019-04-27T14:59:46.442Z,18.45
2019-04-27T15:02:18.465Z,18.62
2019-04-27T15:04:47.363Z,27.37
2019-04-27T15:07:17.951Z,21.20
2019-04-27T15:09:49.784Z,15.20
2019-04-27T15:12:16.791Z,14.20
2019-04-27T15:14:45.991Z,20.30
2019-04-27T15:17:17.625Z,21.25
2019-04-27T15:19:52.743Z,19.17
2019-04-27T15:22:23.126Z,18.15
2019-04-27T15:25:06.444Z,18.15
2019-04-27T15:27:22.392Z,19.27
2019-04-27T15:29:51.655Z,19.73
2019-04-27T15:32:25.243Z,26.42
2019-04-27T15:35:05.263Z,19.07
2019-04-27T15:37:35.425Z,21.90
2019-04-27T15:40:12.964Z,21.25
2019-04-27T15:42:51.717Z,19.50
2019-04-27T15:45:20.567Z,25.93
2019-04-27T15:47:50.857Z,21.45
2019-04-27T15:50:16.046Z,23.13
2019-04-27T15:52:46.509Z,26.00
2019-04-27T15:55:31.800Z,21.40
2019-04-27T15:57:50.335Z,20.10
2019-04-27T16:00:22.869Z,20.97
2019-04-27T16:02:53.288Z,20.63
2019-04-27T16:05:23.628Z,24.37
2019-04-27T16:07:51.753Z,25.87
2019-04-27T16:10:22.334Z,25.33
2019-04-27T16:13:05.814Z,24.87
2019-04-27T16:15:20.882Z,27.60
2019-04-27T16:17:55.897Z,23.20
2019-04-27T16:20:29.158Z,26.23
2019-04-27T16:22:56.659Z,27.73
2019-04-27T16:25:28.223Z,22.80
2019-04-27T16:27:54.355Z,25.17
2019-04-27T16:30:23.561Z,27.60
2019-04-27T16:32:54.014Z,23.67
2019-04-27T16:35:24.455Z,26.87
2019-04-27T16:38:00.500Z,22.90
2019-04-27T16:40:34.726Z,27.73
2019-04-27T16:43:03.982Z,26.57
2019-04-27T16:45:33.190Z,25.67
2019-04-27T16:48:02.452Z,25.47
2019-04-27T16:50:31.933Z,25.33
2019-04-27T16:53:01.245Z,25.73
2019-04-27T16:55:34.124Z,27.93
2019-04-27T16:58:00.954Z,22.77
2019-04-27T17:00:30.503Z,18.47
2019-04-27T17:03:02.712Z,21.90
2019-04-27T17:05:34.264Z,22.33
2019-04-27T17:07:58.155Z,18.40
2019-04-27T17:10:29.115Z,22.13
2019-04-27T17:12:59.190Z,147.60
2019-04-27T17:15:32.578Z,70.93
2019-04-27T17:19:12.408Z,69.87
2019-04-27T17:21:41.178Z,31.33
2019-04-27T17:24:09.109Z,24.20
2019-04-27T17:26:42.366Z,21.30
2019-04-27T17:29:16.133Z,22.23
2019-04-27T17:31:39.445Z,21.63
2019-04-27T17:34:08.805Z,17.90
2019-04-27T17:36:40.301Z,16.60
2019-04-27T17:39:10.608Z,15.10
2019-04-27T17:41:42.090Z,18.27
2019-04-27T17:44:12.664Z,15.47
2019-04-27T17:46:42.753Z,17.27
2019-04-27T17:49:09.222Z,17.03
2019-04-27T17:51:40.621Z,19.37
2019-04-27T17:54:11.216Z,18.03
2019-04-27T17:56:48.339Z,13.63
2019-04-27T17:59:11.975Z,14.20
2019-04-27T18:01:38.900Z,13.07
2019-04-27T18:04:10.467Z,14.10
2019-04-27T18:06:39.064Z,17.30
2019-04-27T18:09:12.534Z,13.23
2019-04-27T18:11:41.763Z,13.57
2019-04-27T18:14:14.418Z,12.10
2019-04-27T18:16:42.331Z,12.23
2019-04-27T18:19:18.519Z,11.00
2019-04-27T18:21:56.742Z,12.97
2019-04-27T18:24:25.022Z,9.87
2019-04-27T18:27:03.033Z,12.37
2019-04-27T18:29:30.829Z,12.63
2019-04-27T18:32:00.802Z,13.23
2019-04-27T18:34:29.974Z,12.57
2019-04-27T18:37:03.991Z,12.70
2019-04-27T18:39:30.288Z,12.47
2019-04-27T18:41:59.494Z,13.07
2019-04-27T18:44:31.807Z,9.87
2019-04-27T18:47:02.068Z,11.10
2019-04-27T18:49:38.638Z,10.03
2019-04-27T18:52:13.909Z,12.77
2019-04-27T18:54:43.081Z,11.57
2019-04-27T18:57:15.254Z,13.53
2019-04-27T18:59:42.740Z,13.10
2019-04-27T19:02:11.983Z,12.80
2019-04-27T19:04:41.275Z,12.20
2019-04-27T19:07:10.456Z,11.23
2019-04-27T19:09:41.008Z,12.40
2019-04-27T19:12:10.592Z,12.43
2019-04-27T19:14:40.982Z,11.93
2019-04-27T19:17:12.203Z,14.30
2019-04-27T19:19:41.385Z,11.73
2019-04-27T19:22:10.561Z,10.40
2019-04-27T19:24:39.769Z,11.67
2019-04-27T19:27:20.924Z,9.17
2019-04-27T19:29:53.231Z,9.87
2019-04-27T19:32:22.468Z,10.20
2019-04-27T19:34:52.197Z,11.73
2019-04-27T19:37:21.423Z,11.93
2019-04-27T19:39:50.717Z,10.03
2019-04-27T19:42:20.272Z,11.17
2019-04-27T19:44:49.077Z,10.37
2019-04-27T19:47:18.309Z,11.33
2019-04-27T19:49:47.604Z,9.73
2019-04-27T19:52:18.392Z,11.60
2019-04-27T19:54:51.079Z,11.97
2019-04-27T19:57:31.862Z,10.97
2019-04-27T19:59:52.823Z,10.73
2019-04-27T20:02:22.000Z,11.90
2019-04-27T20:04:56.984Z,10.43
2019-04-27T20:07:28.424Z,9.27
2019-04-27T20:09:58.483Z,11.77
2019-04-27T20:12:27.606Z,8.60
2019-04-27T20:14:56.837Z,7.60
2019-04-27T20:17:26.990Z,10.77
2019-04-27T20:19:56.742Z,8.63
2019-04-27T20:22:25.927Z,8.40
2019-04-27T20:24:58.753Z,10.87
2019-04-27T20:27:32.152Z,7.97
2019-04-27T20:30:00.665Z,8.63
2019-04-27T20:32:31.432Z,9.97
2019-04-27T20:35:01.339Z,8.80
2019-04-27T20:37:28.868Z,11.73
2019-04-27T20:40:01.208Z,7.63
2019-04-27T20:42:28.977Z,8.67
2019-04-27T20:44:58.257Z,7.40
2019-04-27T20:47:29.922Z,8.47
2019-04-27T20:49:59.217Z,7.93
2019-04-27T20:52:35.348Z,7.60
2019-04-27T20:55:04.956Z,7.40
2019-04-27T20:57:34.132Z,8.20
2019-04-27T21:00:03.388Z,9.00
2019-04-27T21:02:37.650Z,11.93
2019-04-27T21:05:12.612Z,7.70
2019-04-27T21:07:43.312Z,9.40
2019-04-27T21:10:12.569Z,14.20
2019-04-27T21:12:41.787Z,10.57
2019-04-27T21:15:12.936Z,10.20
2019-04-27T21:17:40.673Z,7.53
2019-04-27T21:20:11.781Z,5.07
2019-04-27T21:22:38.856Z,9.87
2019-04-27T21:25:08.053Z,5.30
2019-04-27T21:27:37.244Z,5.33
2019-04-27T21:30:06.473Z,6.33
2019-04-27T21:32:35.661Z,5.77
2019-04-27T21:35:04.920Z,6.20
2019-04-27T21:37:34.146Z,4.17
2019-04-27T21:40:10.481Z,7.13
2019-04-27T21:42:38.053Z,8.13
2019-04-27T21:45:07.227Z,6.30
2019-04-27T21:47:37.643Z,6.90
2019-04-27T21:50:06.800Z,8.03
2019-04-27T21:52:36.232Z,7.27
2019-04-27T21:55:05.497Z,7.97
2019-04-27T21:57:34.676Z,6.80
2019-04-27T22:00:04.247Z,6.13
2019-04-27T22:02:33.422Z,6.00
2019-04-27T22:05:06.271Z,5.80
2019-04-27T22:07:37.561Z,7.07
2019-04-27T22:10:05.908Z,6.37
2019-04-27T22:12:36.445Z,6.17
2019-04-27T22:15:05.617Z,6.53
2019-04-27T22:17:34.780Z,4.77
2019-04-27T22:20:05.421Z,6.50
2019-04-27T22:22:38.954Z,6.47
2019-04-27T22:25:11.571Z,6.83
2019-04-27T22:27:41.353Z,6.13
2019-04-27T22:30:11.062Z,5.87
2019-04-27T22:32:41.417Z,6.57
2019-04-27T22:35:09.366Z,10.73
2019-04-27T22:37:38.618Z,9.70
2019-04-27T22:40:13.106Z,4.47
2019-04-27T22:42:51.635Z,7.30
2019-04-27T22:45:25.073Z,7.13
2019-04-27T22:47:54.252Z,6.30
2019-04-27T22:50:23.469Z,5.67
2019-04-27T22:52:52.649Z,4.73
2019-04-27T22:55:22.067Z,6.87
2019-04-27T22:57:55.584Z,6.93
2019-04-27T23:00:38.199Z,5.43
2019-04-27T23:03:10.934Z,4.57
2019-04-27T23:05:38.436Z,6.63
2019-04-27T23:08:08.848Z,4.73
2019-04-27T23:10:38.057Z,5.17
2019-04-27T23:13:07.243Z,6.37
2019-04-27T23:15:41.186Z,5.37
2019-04-27T23:18:09.158Z,5.50
2019-04-27T23:20:38.318Z,7.23
2019-04-27T23:23:07.524Z,5.73
2019-04-27T23:25:36.685Z,4.27
2019-04-27T23:28:07.013Z,7.23
2019-04-27T23:30:42.617Z,5.30
2019-04-27T23:33:11.801Z,7.67
2019-04-27T23:35:41.378Z,5.73
2019-04-27T23:38:17.541Z,6.60
2019-04-27T23:40:39.473Z,5.87
2019-04-27T23:43:08.667Z,7.20
2019-04-27T23:45:37.849Z,4.07
2019-04-27T23:48:07.154Z,4.53
2019-04-27T23:50:36.546Z,5.40
2019-04-27T23:53:11.839Z,5.77
2019-04-27T23:55:41.931Z,4.73
2019-04-27T23:58:09.502Z,5.47
